Time;durP1;ratioP1;P1;durP2;ratioP2;P2;SDS_P1;SDS_P2;PMS_P1;PMS_P2;Temp;Humidity;BMP_temperature;BMP_pressure;BME280_temperature;BME280_humidity;BME280_pressure;Samples;Min_cycle;Max_cycle;Signal;HPM_P1;HPM_P2
2023/06/21 00:01:38;;;;;;;7.85;6.80;;;;;;;21.25;100.00;100280.28;6227295;28;20709;-94
2023/06/21 00:04:40;;;;;;;7.03;6.28;;;;;;;21.33;100.00;100245.06;6231080;28;20104;-94
2023/06/21 00:07:43;;;;;;;8.80;6.97;;;;;;;21.38;100.00;100243.47;6248688;28;20045;-93
2023/06/21 00:10:45;;;;;;;7.60;6.40;;;;;;;-62.38;100.00;126312.03;6241729;28;20049;-93
2023/06/21 00:13:47;;;;;;;7.82;6.32;;;;;;;21.44;100.00;-15293.31;6245137;28;20037;-94
2023/06/21 00:16:49;;;;;;;9.27;6.88;;;;;;;21.41;100.00;100239.66;6230853;28;20038;-95
2023/06/21 00:19:54;;;;;;;6.75;6.03;;;;;;;21.39;100.00;100244.31;6236352;28;20529;-94
2023/06/21 00:22:56;;;;;;;6.72;5.90;;;;;;;21.36;100.00;100242.03;6245320;28;20503;-93
2023/06/21 00:25:58;;;;;;;8.35;6.40;;;;;;;21.35;100.00;100241.22;6231656;28;20049;-94
2023/06/21 00:29:00;;;;;;;7.18;6.47;;;;;;;21.42;100.00;76065.94;6239719;28;20052;-94
2023/06/21 00:32:03;;;;;;;8.95;6.70;;;;;;;21.43;100.00;84933.56;6235870;28;20506;-92
2023/06/21 00:35:05;;;;;;;7.43;6.50;;;;;;;21.42;0.00;135752.06;6228951;28;20045;-93
2023/06/21 00:38:12;;;;;;;7.80;6.85;;;;;;;-62.42;0.00;117727.53;6235686;28;20216;-93
2023/06/21 00:41:14;;;;;;;11.50;7.13;;;;;;;-104.61;100.00;121786.44;6229510;28;20046;-92
2023/06/21 00:44:16;;;;;;;9.65;7.07;;;;;;;-62.37;100.00;126386.38;6236867;28;20052;-92
2023/06/21 00:47:18;;;;;;;10.23;7.75;;;;;;;-104.67;100.00;65535.72;6229372;28;20245;-92
2023/06/21 00:50:20;;;;;;;8.20;7.30;;;;;;;-125.77;100.00;117727.53;6238177;28;20129;-92
2023/06/21 00:53:24;;;;;;;9.05;7.00;;;;;;;-145.48;100.00;64539.38;6238888;28;20045;-92
2023/06/21 00:56:29;;;;;;;10.23;7.43;;;;;;;-145.48;100.00;64539.38;6237815;28;20037;-91
2023/06/21 00:59:31;;;;;;;11.00;7.40;;;;;;;-145.48;0.00;64539.38;6221605;28;20172;-91
2023/06/21 01:02:33;;;;;;;10.77;7.32;;;;;;;-141.55;100.00;64539.38;6236502;28;20339;-91
2023/06/21 01:05:36;;;;;;;13.48;7.68;;;;;;;-144.17;100.00;64539.38;6246970;28;20057;-91
2023/06/21 01:09:17;;;;;;;8.57;6.43;;;;;;;-145.48;100.00;64539.38;6242032;28;20052;-91
2023/06/21 01:12:57;;;;;;;8.95;6.57;;;;;;;-145.48;100.00;64539.38;6246739;28;20090;-91
2023/06/21 01:16:06;;;;;;;7.30;6.20;;;;;;;-145.48;100.00;64539.38;6244602;28;20049;-91
2023/06/21 01:19:28;;;;;;;7.55;5.68;;;;;;;-145.48;100.00;64539.38;6224826;28;20041;-90
2023/06/21 01:22:58;;;;;;;7.22;6.07;;;;;;;-145.48;100.00;64539.38;6236221;28;20033;-91
2023/06/21 01:26:19;;;;;;;8.98;6.30;;;;;;;-145.48;100.00;64539.38;6243738;28;20056;-91
2023/06/21 01:29:27;;;;;;;7.28;6.55;;;;;;;-145.48;100.00;64539.38;6248613;28;20123;-90
2023/06/21 01:32:30;;;;;;;6.97;6.28;;;;;;;-145.48;100.00;64539.38;6242450;28;20064;-90
2023/06/21 01:35:31;;;;;;;6.90;6.25;;;;;;;-145.48;100.00;64539.38;6241095;28;20049;-90
2023/06/21 01:38:36;;;;;;;8.65;6.10;;;;;;;-145.48;100.00;64539.38;6236361;28;20049;-90
2023/06/21 01:41:38;;;;;;;10.27;6.47;;;;;;;-145.48;100.00;64539.38;6236850;28;20056;-90
2023/06/21 01:44:40;;;;;;;7.47;6.70;;;;;;;-145.48;100.00;64539.38;6245752;28;20123;-90
2023/06/21 01:47:44;;;;;;;6.47;5.85;;;;;;;-145.48;100.00;64539.38;6257076;28;20289;-89
2023/06/21 01:50:47;;;;;;;9.90;6.03;;;;;;;-105.46;100.00;64539.38;6232349;28;20072;-90
2023/06/21 01:53:50;;;;;;;6.30;5.18;;;;;;;-145.48;100.00;84812.44;6227421;28;20546;-89
2023/06/21 01:56:58;;;;;;;6.82;5.55;;;;;;;20.44;100.00;-15266.47;6246390;28;20052;-89
2023/06/21 02:00:01;;;;;;;7.88;5.60;;;;;;;20.38;100.00;100200.13;6230992;28;20140;-89
2023/06/21 02:03:18;;;;;;;6.45;5.25;;;;;;;20.36;100.00;100210.81;6236777;28;20369;-89
2023/06/21 02:06:26;;;;;;;7.97;5.78;;;;;;;20.37;100.00;100230.88;6237158;28;20638;-89
2023/06/21 02:09:28;;;;;;;5.43;4.93;;;;;;;20.36;100.00;100231.84;6237669;28;20388;-89
2023/06/21 02:12:33;;;;;;;7.50;5.50;;;;;;;20.38;100.00;100250.06;6237174;28;20061;-89
2023/06/21 02:15:34;;;;;;;9.68;5.65;;;;;;;20.40;100.00;100256.75;6237995;28;20045;-88
2023/06/21 02:18:37;;;;;;;10.55;5.65;;;;;;;20.38;100.00;100260.59;6237972;28;20041;-89
2023/06/21 02:21:39;;;;;;;7.50;5.90;;;;;;;20.36;100.00;100247.63;6237870;28;20088;-88
2023/06/21 02:24:41;;;;;;;12.27;6.30;;;;;;;20.35;100.00;100251.28;6230718;28;20048;-88
2023/06/21 02:27:43;;;;;;;7.80;5.78;;;;;;;20.40;100.00;100245.44;6240419;28;20049;-87
2023/06/21 02:30:46;;;;;;;7.97;6.00;;;;;;;20.42;100.00;100240.78;6238868;28;20030;-87
2023/06/21 02:33:49;;;;;;;8.57;6.25;;;;;;;20.40;100.00;100245.44;6239703;28;20029;-87
2023/06/21 02:36:53;;;;;;;9.90;6.30;;;;;;;20.46;100.00;100249.91;6253239;28;20042;-87
2023/06/21 02:39:56;;;;;;;8.27;6.25;;;;;;;20.42;100.00;100252.13;6236153;28;20160;-86
2023/06/21 02:42:58;;;;;;;8.63;7.43;;;;;;;20.44;100.00;100250.09;6239193;28;20037;-86
2023/06/21 02:46:00;;;;;;;10.82;7.35;;;;;;;20.39;100.00;100249.84;6222389;28;20605;-86
2023/06/21 02:49:02;;;;;;;9.50;7.07;;;;;;;20.34;100.00;100254.06;6251069;28;20052;-86
2023/06/21 02:52:04;;;;;;;10.18;8.02;;;;;;;20.25;100.00;100268.34;6250464;28;20045;-86
2023/06/21 02:55:07;;;;;;;10.75;7.78;;;;;;;20.26;100.00;100270.81;6236525;28;20052;-86
2023/06/21 02:58:09;;;;;;;9.68;7.53;;;;;;;20.25;100.00;100271.81;6232049;28;20049;-86
2023/06/21 03:01:13;;;;;;;10.57;7.43;;;;;;;20.27;100.00;100277.69;6219595;28;20068;-86
2023/06/21 03:04:16;;;;;;;11.38;8.65;;;;;;;20.26;100.00;100276.06;6243137;28;20360;-87
2023/06/21 03:07:19;;;;;;;10.38;7.75;;;;;;;20.25;100.00;100290.22;6241240;28;20046;-88
2023/06/21 03:10:21;;;;;;;12.75;8.27;;;;;;;20.19;100.00;100277.81;6248250;28;20033;-87
2023/06/21 03:13:23;;;;;;;9.98;7.95;;;;;;;20.19;100.00;100283.09;6248669;28;20048;-86
2023/06/21 03:16:25;;;;;;;10.25;8.10;;;;;;;20.22;100.00;100285.31;6262832;28;20045;-86
2023/06/21 03:19:27;;;;;;;10.65;8.73;;;;;;;20.18;100.00;100290.16;6243669;28;20045;-86
2023/06/21 03:22:47;;;;;;;10.38;8.05;;;;;;;20.10;100.00;100297.34;6257075;28;20086;-87
2023/06/21 03:25:49;;;;;;;11.55;8.52;;;;;;;20.14;100.00;100295.97;6244991;28;20033;-86
2023/06/21 03:28:51;;;;;;;14.48;8.40;;;;;;;20.15;100.00;100303.69;6233796;28;20537;-86
2023/06/21 03:31:52;;;;;;;12.25;8.10;;;;;;;20.19;100.00;100319.88;6260106;28;20041;-86
2023/06/21 03:34:58;;;;;;;10.45;9.00;;;;;;;20.09;100.00;100306.25;6255633;28;20057;-87
2023/06/21 03:38:01;;;;;;;9.88;8.02;;;;;;;20.07;100.00;100316.94;6243091;28;20048;-86
2023/06/21 03:41:13;;;;;;;9.25;8.20;;;;;;;20.00;100.00;100327.41;6235198;28;20045;-87
2023/06/21 03:44:15;;;;;;;10.98;7.97;;;;;;;20.04;100.00;100333.09;6216919;28;20508;-86
2023/06/21 03:47:17;;;;;;;10.45;7.13;;;;;;;20.12;100.00;100334.78;6234499;28;20053;-87
2023/06/21 03:50:20;;;;;;;10.20;7.88;;;;;;;20.10;100.00;100356.00;6225996;28;20060;-86
2023/06/21 03:53:22;;;;;;;9.30;7.00;;;;;;;20.03;100.00;100355.13;6237167;28;20036;-86
2023/06/21 03:56:24;;;;;;;11.45;7.07;;;;;;;20.10;100.00;100366.50;6242692;28;20069;-87
2023/06/21 03:59:26;;;;;;;10.13;6.47;;;;;;;20.15;100.00;100363.31;6250399;28;20046;-86
2023/06/21 04:02:28;;;;;;;9.48;6.97;;;;;;;20.21;100.00;100376.50;6244431;28;20445;-86
2023/06/21 04:05:30;;;;;;;8.50;6.35;;;;;;;20.26;100.00;100378.59;6258243;28;20052;-86
2023/06/21 04:08:32;;;;;;;7.90;6.32;;;;;;;20.28;100.00;100381.03;6252349;28;20434;-87
2023/06/21 04:11:34;;;;;;;10.07;6.93;;;;;;;20.39;100.00;100383.94;6249952;28;20092;-86
2023/06/21 04:14:35;;;;;;;9.82;6.65;;;;;;;20.46;100.00;100383.22;6255496;28;20077;-86
2023/06/21 04:17:37;;;;;;;9.20;6.80;;;;;;;20.39;100.00;100386.56;6258797;28;20507;-87
2023/06/21 04:20:39;;;;;;;9.23;7.32;;;;;;;20.41;100.00;100394.28;6234863;28;20563;-87
2023/06/21 04:23:41;;;;;;;10.60;7.95;;;;;;;20.42;100.00;100403.78;6241849;28;20128;-87
2023/06/21 04:26:43;;;;;;;13.82;8.02;;;;;;;20.44;100.00;100414.94;6238627;28;20045;-87
2023/06/21 04:29:48;;;;;;;11.60;8.00;;;;;;;20.37;100.00;100422.78;6260286;28;20063;-86
2023/06/21 04:32:49;;;;;;;11.85;7.38;;;;;;;20.36;100.00;100417.69;6247064;28;20415;-87
2023/06/21 04:35:51;;;;;;;7.50;6.32;;;;;;;20.26;100.00;100433.78;6247939;28;20044;-87
2023/06/21 04:38:53;;;;;;;8.48;7.53;;;;;;;20.37;100.00;100427.19;6242345;28;20431;-87
2023/06/21 04:41:58;;;;;;;9.02;7.05;;;;;;;20.36;100.00;100425.59;6233996;28;20047;-87
2023/06/21 04:44:59;;;;;;;9.93;7.25;;;;;;;20.40;100.00;100429.47;6239415;28;20045;-87
2023/06/21 04:48:04;;;;;;;10.02;7.10;;;;;;;20.46;100.00;100426.09;6248833;28;20041;-87
2023/06/21 04:51:06;;;;;;;8.88;7.40;;;;;;;20.43;100.00;100432.53;6240679;28;20044;-87
2023/06/21 04:54:08;;;;;;;8.15;6.85;;;;;;;20.48;100.00;100439.06;6240348;28;20042;-87
2023/06/21 04:57:12;;;;;;;8.80;6.25;;;;;;;20.48;100.00;100441.69;6248801;28;20037;-87
2023/06/21 05:00:15;;;;;;;7.75;6.88;;;;;;;20.55;100.00;100440.78;6246926;28;20116;-87
2023/06/21 05:03:17;;;;;;;6.93;6.22;;;;;;;20.53;100.00;100440.09;6252023;28;20053;-87
2023/06/21 05:06:23;;;;;;;9.93;6.90;;;;;;;20.58;100.00;100439.59;6257719;28;20050;-87
2023/06/21 05:09:24;;;;;;;9.48;7.15;;;;;;;20.66;100.00;100444.69;6246535;28;20530;-86
2023/06/21 05:12:26;;;;;;;9.45;6.90;;;;;;;20.68;100.00;100447.16;6248623;28;20041;-87
2023/06/21 05:15:28;;;;;;;7.70;6.80;;;;;;;20.66;100.00;100444.69;6239951;28;20393;-86
2023/06/21 05:18:30;;;;;;;9.10;6.22;;;;;;;20.76;100.00;100445.19;6262692;28;20041;-86
2023/06/21 05:21:32;;;;;;;9.25;7.20;;;;;;;20.71;100.00;100450.22;6261547;28;20090;-87
2023/06/21 05:24:34;;;;;;;8.57;7.05;;;;;;;20.72;100.00;100446.59;6257664;28;20040;-87
2023/06/21 05:27:36;;;;;;;8.90;7.03;;;;;;;20.69;100.00;100452.22;6244963;28;20052;-87
2023/06/21 05:30:38;;;;;;;8.50;6.90;;;;;;;20.71;100.00;100460.72;6249940;28;20056;-86
2023/06/21 05:33:39;;;;;;;10.20;7.03;;;;;;;20.69;100.00;100459.28;6243616;28;20089;-86
2023/06/21 05:36:41;;;;;;;9.65;6.88;;;;;;;20.74;100.00;100462.16;6245733;28;20495;-87
2023/06/21 05:39:44;;;;;;;11.63;7.13;;;;;;;20.71;100.00;100476.50;6244409;28;20049;-87
2023/06/21 05:42:46;;;;;;;8.75;7.43;;;;;;;20.70;100.00;100480.16;6246882;28;20644;-87
2023/06/21 05:45:48;;;;;;;8.82;7.93;;;;;;;20.88;100.00;100479.69;6241260;28;20216;-87
2023/06/21 05:48:50;;;;;;;9.68;7.35;;;;;;;21.01;100.00;100484.25;6240467;28;20068;-87
2023/06/21 05:51:52;;;;;;;8.18;6.80;;;;;;;20.84;100.00;100487.16;6249804;28;20065;-87
2023/06/21 05:54:54;;;;;;;9.18;6.25;;;;;;;20.79;100.00;100483.47;6242535;28;20782;-86
2023/06/21 05:57:56;;;;;;;7.25;5.57;;;;;;;20.93;100.00;100484.41;6238760;28;20562;-87
2023/06/21 06:00:58;;;;;;;7.53;5.45;;;;;;;20.96;100.00;100489.28;6239329;28;20056;-86
2023/06/21 06:04:23;;;;;;;6.82;6.10;;;;;;;20.86;100.00;100497.50;6242280;28;20408;-86
2023/06/21 06:07:25;;;;;;;6.30;5.70;;;;;;;20.90;100.00;100511.09;6244921;28;20040;-86
2023/06/21 06:10:27;;;;;;;6.78;5.80;;;;;;;20.97;100.00;100511.97;6246162;28;20500;-86
2023/06/21 06:13:29;;;;;;;9.02;5.50;;;;;;;21.18;100.00;100509.28;6242310;28;20037;-87
2023/06/21 06:16:31;;;;;;;6.80;6.10;;;;;;;21.16;100.00;100516.56;6245323;28;20513;-86
2023/06/21 06:19:36;;;;;;;7.18;6.47;;;;;;;21.31;100.00;100521.72;6247050;28;20050;-86
2023/06/21 06:22:39;;;;;;;7.68;5.88;;;;;;;21.42;100.00;100529.16;6241838;28;20143;-85
2023/06/21 06:25:42;;;;;;;5.93;5.32;;;;;;;21.37;100.00;100520.16;6241389;28;20495;-86
2023/06/21 06:28:44;;;;;;;5.70;5.07;;;;;;;21.42;100.00;100520.44;6239460;28;20103;-86
2023/06/21 06:31:46;;;;;;;7.07;5.63;;;;;;;21.49;100.00;100531.84;6243267;28;20044;-86
2023/06/21 06:34:51;;;;;;;6.00;5.40;;;;;;;21.58;100.00;100524.59;6232908;28;20044;-86
2023/06/21 06:37:53;;;;;;;7.78;4.72;;;;;;;21.72;100.00;100529.75;6239960;28;20227;-85
2023/06/21 06:40:55;;;;;;;7.10;5.20;;;;;;;21.94;100.00;100529.66;6245127;28;20248;-85
2023/06/21 06:43:57;;;;;;;6.03;5.30;;;;;;;22.04;100.00;100539.84;6235994;28;20476;-85
2023/06/21 06:47:00;;;;;;;7.03;4.78;;;;;;;22.05;100.00;100544.09;6238919;28;20755;-86
2023/06/21 06:50:04;;;;;;;6.20;5.13;;;;;;;22.03;100.00;100549.53;6238697;28;20120;-86
2023/06/21 06:53:06;;;;;;;6.68;5.40;;;;;;;22.11;100.00;100549.41;6240559;28;20527;-86
2023/06/21 06:56:08;;;;;;;5.90;5.30;;;;;;;22.19;100.00;100558.16;6243657;28;20055;-86
2023/06/21 06:59:10;;;;;;;8.30;5.30;;;;;;;22.13;100.00;100547.34;6246899;28;20495;-86
2023/06/21 07:02:12;;;;;;;5.70;5.07;;;;;;;22.11;100.00;100552.03;6240358;28;20049;-86
2023/06/21 07:05:14;;;;;;;8.18;5.65;;;;;;;22.12;100.00;100548.38;6237222;28;20096;-86
2023/06/21 07:08:16;;;;;;;6.22;5.47;;;;;;;22.09;100.00;100553.25;6253820;28;20050;-85
2023/06/21 07:11:18;;;;;;;6.25;4.90;;;;;;;21.98;100.00;100546.69;6245441;28;20445;-85
2023/06/21 07:14:20;;;;;;;6.07;5.38;;;;;;;22.03;100.00;100554.81;6255352;28;20041;-85
2023/06/21 07:17:23;;;;;;;7.70;5.72;;;;;;;22.10;100.00;100566.22;6239214;28;20628;-86
2023/06/21 07:20:25;;;;;;;5.03;4.57;;;;;;;22.15;100.00;100571.72;6247281;28;20040;-85
2023/06/21 07:23:29;;;;;;;13.02;6.18;;;;;;;22.15;100.00;100584.09;6256358;28;20171;-85
2023/06/21 07:26:31;;;;;;;6.85;5.25;;;;;;;22.18;100.00;100581.06;6252247;28;20037;-85
2023/06/21 07:29:34;;;;;;;6.00;5.40;;;;;;;22.36;100.00;100578.75;6243436;28;20565;-85
2023/06/21 07:32:36;;;;;;;7.55;5.82;;;;;;;22.35;100.00;100586.84;6239606;28;20033;-85
2023/06/21 07:35:38;;;;;;;7.75;6.03;;;;;;;22.62;100.00;100592.22;6238787;28;20052;-85
2023/06/21 07:38:40;;;;;;;5.85;5.35;;;;;;;22.68;100.00;100601.97;6237852;28;20119;-85
2023/06/21 07:41:42;;;;;;;6.18;5.32;;;;;;;22.80;100.00;100606.44;6254483;28;20048;-85
2023/06/21 07:44:45;;;;;;;7.43;5.85;;;;;;;22.98;100.00;100605.94;6249878;28;20210;-85
2023/06/21 07:47:47;;;;;;;7.80;5.95;;;;;;;23.29;100.00;100601.06;6237977;28;20534;-85
2023/06/21 07:50:49;;;;;;;5.70;5.20;;;;;;;23.38;100.00;100600.69;6242846;28;20041;-85
2023/06/21 07:53:50;;;;;;;7.18;5.65;;;;;;;23.42;100.00;100601.88;6238998;28;20033;-85
2023/06/21 07:56:52;;;;;;;6.95;5.97;;;;;;;23.41;100.00;100600.25;6239271;28;20037;-85
2023/06/21 07:59:55;;;;;;;7.07;6.07;;;;;;;23.46;100.00;100607.56;6240261;28;20741;-85
2023/06/21 08:02:57;;;;;;;6.18;5.57;;;;;;;23.71;100.00;100610.41;6240051;28;20049;-85
2023/06/21 08:06:03;;;;;;;5.88;5.18;;;;;;;24.00;100.00;100619.75;6238022;28;20322;-85
2023/06/21 08:09:05;;;;;;;7.38;5.28;;;;;;;24.22;100.00;100598.28;6237223;28;20045;-85
2023/06/21 08:12:07;;;;;;;8.85;5.38;;;;;;;24.36;100.00;100605.16;6248195;28;20049;-85
2023/06/21 08:15:10;;;;;;;5.75;5.25;;;;;;;24.27;100.00;100606.41;6250477;28;20128;-85
2023/06/21 08:18:13;;;;;;;6.38;5.45;;;;;;;24.05;100.00;100590.03;6242404;28;20104;-85
2023/06/21 08:21:15;;;;;;;8.95;5.30;;;;;;;23.97;100.00;100592.88;6244045;28;20127;-85
2023/06/21 08:24:17;;;;;;;6.13;5.35;;;;;;;24.06;100.00;100587.16;6242571;28;20037;-85
2023/06/21 08:27:19;;;;;;;6.03;5.30;;;;;;;24.10;100.00;100595.50;6239869;28;20045;-85
2023/06/21 08:30:21;;;;;;;9.43;5.55;;;;;;;24.04;100.00;100588.38;6237169;28;20088;-85
2023/06/21 08:33:23;;;;;;;6.25;5.00;;;;;;;23.94;100.00;100593.31;6240841;28;20411;-86
2023/06/21 08:36:26;;;;;;;5.28;4.50;;;;;;;23.79;100.00;100594.34;6236891;28;20369;-86
2023/06/21 08:39:28;;;;;;;5.43;4.93;;;;;;;23.75;100.00;100600.25;6245153;28;20044;-86
2023/06/21 08:42:33;;;;;;;5.82;5.28;;;;;;;23.65;100.00;100598.81;6234119;28;20033;-86
2023/06/21 08:45:35;;;;;;;6.57;5.93;;;;;;;23.61;100.00;100596.78;6236977;28;20419;-94
2023/06/21 08:48:41;;;;;;;5.90;5.03;;;;;;;23.56;100.00;100610.63;6234327;28;20487;-93
2023/06/21 08:51:45;;;;;;;7.57;5.65;;;;;;;23.65;100.00;100613.84;6244889;28;20037;-94
2023/06/21 08:54:54;;;;;;;6.72;5.05;;;;;;;23.76;100.00;100609.81;6219929;28;20054;-95
2023/06/21 08:58:00;;;;;;;6.65;6.05;;;;;;;23.80;100.00;100619.78;6229501;28;20396;-96
2023/06/21 09:01:04;;;;;;;7.40;5.75;;;;;;;23.81;100.00;100620.59;6237185;28;20181;-92
2023/06/21 09:04:09;;;;;;;6.10;5.50;;;;;;;24.01;100.00;100636.41;6241825;28;20466;-93
2023/06/21 09:07:15;;;;;;;7.28;5.72;;;;;;;24.01;100.00;100628.47;6235610;28;20725;-92
2023/06/21 09:10:21;;;;;;;6.72;6.13;;;;;;;24.06;100.00;100623.38;6253011;28;20168;-92
2023/06/21 09:13:24;;;;;;;6.55;5.93;;;;;;;24.15;100.00;100630.06;6251171;28;20400;-93
2023/06/21 09:16:28;;;;;;;7.22;6.53;;;;;;;24.15;100.00;100624.78;6225981;28;20060;-92
2023/06/21 09:19:40;;;;;;;7.57;6.18;;;;;;;24.21;100.00;100631.88;6247953;28;20041;-92
2023/06/21 09:22:46;;;;;;;7.20;6.47;;;;;;;24.28;100.00;100637.94;6250013;28;20029;-91
2023/06/21 09:25:48;;;;;;;8.50;6.95;;;;;;;24.34;100.00;100636.31;6242296;28;20084;-96
2023/06/21 09:28:50;;;;;;;7.78;7.05;;;;;;;24.58;100.00;100632.16;6238145;28;20450;-94
2023/06/21 09:31:52;;;;;;;8.07;7.28;;;;;;;24.91;100.00;100644.41;6238974;28;20037;-94
2023/06/21 09:34:54;;;;;;;8.07;7.28;;;;;;;25.36;100.00;100641.69;6236791;28;20053;-93
2023/06/21 09:37:57;;;;;;;8.82;7.93;;;;;;;25.65;100.00;100642.88;6235787;28;20045;-93
2023/06/21 09:41:02;;;;;;;9.07;8.27;;;;;;;25.87;100.00;100645.16;6251968;28;20096;-93
2023/06/21 09:44:05;;;;;;;9.30;8.45;;;;;;;26.15;100.00;100647.31;6244278;28;20091;-94
2023/06/21 09:47:10;;;;;;;8.93;8.05;;;;;;;26.16;100.00;100649.75;6228887;28;20053;-92
2023/06/21 09:50:12;;;;;;;9.90;8.90;;;;;;;26.25;100.00;100652.91;6237613;28;20049;-91
2023/06/21 09:53:21;;;;;;;9.95;8.77;;;;;;;25.92;100.00;100650.63;6244570;28;20041;-92
2023/06/21 09:56:24;;;;;;;10.00;9.00;;;;;;;25.76;100.00;100654.59;6244090;28;20060;-94
2023/06/21 09:59:26;;;;;;;11.38;10.30;;;;;;;25.49;100.00;100654.00;6245679;28;20136;-96
2023/06/21 10:02:28;;;;;;;11.48;10.05;;;;;;;25.21;100.00;100652.59;6247544;28;20120;-96
2023/06/21 10:05:31;;;;;;;11.93;10.00;;;;;;;25.23;100.00;100652.41;6238230;28;20522;-94
2023/06/21 10:08:36;;;;;;;11.90;10.55;;;;;;;25.28;100.00;100649.91;6239538;28;20061;-95
2023/06/21 10:11:38;;;;;;;10.63;9.55;;;;;;;25.31;100.00;100660.88;6227239;28;20033;-91
2023/06/21 10:14:41;;;;;;;12.05;10.85;;;;;;;25.36;100.00;100662.88;6237266;28;20046;-92
2023/06/21 10:17:47;;;;;;;13.07;10.45;;;;;;;25.30;100.00;100672.53;6238251;28;20045;-96
2023/06/21 10:21:11;;;;;;;12.57;10.60;;;;;;;25.09;100.00;100673.66;6245490;28;20431;-93
2023/06/21 10:24:17;;;;;;;12.55;11.35;;;;;;;24.98;100.00;100682.28;6226932;28;20072;-96
2023/06/21 10:27:20;;;;;;;12.10;10.80;;;;;;;25.06;100.00;100681.22;6239747;28;20049;-96
2023/06/21 10:30:25;;;;;;;12.25;11.10;;;;;;;24.98;100.00;100682.28;6247038;28;20034;-95
2023/06/21 10:33:30;;;;;;;10.70;9.70;;;;;;;24.84;100.00;100672.75;6242461;28;20037;-93
2023/06/21 10:36:36;;;;;;;12.63;9.85;;;;;;;25.15;100.00;100666.69;6237072;28;20176;-92
2023/06/21 10:39:38;;;;;;;11.23;10.13;;;;;;;25.47;100.00;100680.75;6239760;28;20040;-90
2023/06/21 10:42:41;;;;;;;11.70;9.38;;;;;;;25.67;100.00;100677.13;6237970;28;20038;-95
2023/06/21 10:45:44;;;;;;;10.50;9.50;;;;;;;25.91;100.00;100681.66;6250838;28;20041;-93
2023/06/21 10:48:47;;;;;;;11.40;9.73;;;;;;;26.18;100.00;100681.34;6236589;28;20053;-94
2023/06/21 10:51:51;;;;;;;9.65;8.65;;;;;;;26.41;100.00;100684.16;6238082;28;20086;-90
2023/06/21 10:54:57;;;;;;;10.68;9.27;;;;;;;26.35;100.00;100687.69;6245111;28;20036;-93
2023/06/21 10:58:00;;;;;;;10.73;9.48;;;;;;;26.24;100.00;100704.38;6243414;28;20033;-95
2023/06/21 11:01:04;;;;;;;10.65;9.55;;;;;;;26.06;100.00;100691.06;6237369;28;20045;-91
2023/06/21 11:04:06;;;;;;;10.38;9.38;;;;;;;26.12;100.00;100703.47;6224622;28;20033;-94
2023/06/21 11:07:09;;;;;;;9.70;8.77;;;;;;;26.38;100.00;100700.56;6227374;28;20045;-91
2023/06/21 11:10:12;;;;;;;9.60;8.70;;;;;;;26.68;100.00;100707.75;6240940;28;20038;-93
2023/06/21 11:13:32;;;;;;;8.63;7.80;;;;;;;26.69;100.00;100712.06;6236302;28;20049;-95
2023/06/21 11:16:39;;;;;;;9.73;8.75;;;;;;;26.66;100.00;100709.03;6238417;28;20076;-93
2023/06/21 11:19:47;;;;;;;10.13;8.40;;;;;;;26.51;100.00;100720.00;6219141;28;20076;-92
2023/06/21 11:23:00;;;;;;;8.95;8.15;;;;;;;26.27;100.00;100717.19;6244500;28;20041;-92
2023/06/21 11:26:02;;;;;;;9.57;8.45;;;;;;;26.38;100.00;100718.28;6237870;28;20455;-92
2023/06/21 11:29:13;;;;;;;9.98;8.45;;;;;;;26.89;100.00;100732.25;6244657;28;20049;-94
2023/06/21 11:32:15;;;;;;;9.75;8.63;;;;;;;27.45;100.00;100728.41;6225021;28;20131;-93
2023/06/21 11:35:17;;;;;;;8.70;7.85;;;;;;;28.04;100.00;100723.19;6247826;28;20052;-90
2023/06/21 11:38:19;;;;;;;7.55;6.72;;;;;;;28.32;100.00;100736.59;6234345;28;20045;-92
2023/06/21 11:41:46;;;;;;;7.65;6.88;;;;;;;28.23;100.00;100737.19;6238112;28;20040;-91
2023/06/21 11:44:49;;;;;;;7.00;6.30;;;;;;;28.11;100.00;100737.97;6241431;28;20056;-92
2023/06/21 11:48:12;;;;;;;6.72;6.13;;;;;;;28.20;100.00;100732.31;6245914;28;20234;-91
2023/06/21 11:51:15;;;;;;;7.60;6.25;;;;;;;27.83;100.00;100752.00;6230126;28;20116;-93
2023/06/21 11:54:34;;;;;;;7.70;6.97;;;;;;;27.54;100.00;100750.97;6244399;28;20069;-91
2023/06/21 11:57:46;;;;;;;7.20;6.50;;;;;;;27.53;100.00;100754.69;6246320;28;20108;-91
2023/06/21 12:00:49;;;;;;;7.60;6.40;;;;;;;27.89;100.00;100761.69;6231148;28;20049;-93
2023/06/21 12:03:58;;;;;;;7.13;6.50;;;;;;;28.26;100.00;100758.81;6239067;28;20384;-91
2023/06/21 12:07:00;;;;;;;7.07;6.25;;;;;;;28.67;100.00;100758.88;6235755;28;20049;-92
2023/06/21 12:10:02;;;;;;;6.63;6.03;;;;;;;29.01;100.00;100765.16;6238823;28;20046;-91
2023/06/21 12:13:06;;;;;;;6.75;6.15;;;;;;;29.18;100.00;100759.91;6237717;28;20046;-92
2023/06/21 12:16:08;;;;;;;7.57;5.80;;;;;;;28.76;100.00;100760.13;6238419;28;20329;-92
2023/06/21 12:19:10;;;;;;;6.20;5.60;;;;;;;28.32;100.00;100759.72;6236503;28;20095;-92
2023/06/21 12:22:19;;;;;;;6.53;5.90;;;;;;;27.97;100.00;100757.88;6236445;28;20033;-93
2023/06/21 12:25:20;;;;;;;6.93;5.68;;;;;;;27.90;100.00;100757.19;6238952;28;20072;-92
2023/06/21 12:28:24;;;;;;;5.80;5.15;;;;;;;27.77;100.00;100754.72;6239929;28;20045;-90
2023/06/21 12:31:29;;;;;;;7.65;5.57;;;;;;;27.95;100.00;100745.84;6239177;28;20065;-91
2023/06/21 12:34:32;;;;;;;6.72;5.53;;;;;;;28.75;100.00;100751.34;6232989;28;20127;-92
2023/06/21 12:37:34;;;;;;;5.65;5.15;;;;;;;29.22;100.00;100749.56;6238318;28;20045;-93
2023/06/21 12:40:35;;;;;;;8.18;5.60;;;;;;;29.33;100.00;100754.03;6233999;28;20053;-93
2023/06/21 12:43:41;;;;;;;5.32;4.85;;;;;;;29.27;100.00;100766.47;6242244;28;20037;-92
2023/06/21 12:46:44;;;;;;;6.10;4.80;;;;;;;29.33;100.00;100764.69;6240702;28;20128;-93
2023/06/21 12:49:48;;;;;;;7.80;5.40;;;;;;;29.18;100.00;100762.56;6242861;28;20048;-91
2023/06/21 12:53:01;;;;;;;6.25;5.22;;;;;;;28.63;100.00;100763.09;6254007;28;20041;-94
2023/06/21 12:56:11;;;;;;;7.75;5.28;;;;;;;27.98;100.00;100753.41;6245200;28;20091;-94
2023/06/21 12:59:13;;;;;;;5.70;5.20;;;;;;;27.57;100.00;100747.84;6243579;28;20059;-94
2023/06/21 13:02:15;;;;;;;6.07;5.50;;;;;;;27.40;100.00;100752.22;6244534;28;20450;-96
2023/06/21 13:05:19;;;;;;;7.22;5.50;;;;;;;27.33;100.00;100765.63;6243917;28;20059;-96
2023/06/21 13:08:24;;;;;;;7.65;5.35;;;;;;;27.79;100.00;100761.44;6249841;28;20044;-93
2023/06/21 13:11:27;;;;;;;5.55;5.05;;;;;;;28.80;100.00;100763.97;6246350;28;20503;-91
2023/06/21 13:14:29;;;;;;;7.07;5.88;;;;;;;29.51;100.00;100766.34;6246863;28;20056;-88
2023/06/21 13:17:31;;;;;;;5.93;4.93;;;;;;;29.66;100.00;100773.81;6251326;28;20680;-88
2023/06/21 13:20:35;;;;;;;7.20;5.05;;;;;;;29.89;100.00;100770.16;6241635;28;20045;-88
2023/06/21 13:23:40;;;;;;;5.28;4.28;;;;;;;30.04;100.00;100778.44;6243869;28;20041;-88
2023/06/21 13:26:42;;;;;;;5.13;4.63;;;;;;;30.21;100.00;100779.22;6241699;28;20044;-88
2023/06/21 13:29:44;;;;;;;5.80;4.50;;;;;;;30.27;96.23;100778.25;6244756;28;20049;-88
2023/06/21 13:32:46;;;;;;;4.90;4.50;;;;;;;30.10;100.00;100776.63;6239215;28;20107;-88
2023/06/21 13:35:48;;;;;;;5.47;4.97;;;;;;;29.72;100.00;100762.19;6245128;28;20499;-88
2023/06/21 13:38:50;;;;;;;4.18;3.80;;;;;;;29.59;94.61;100776.59;6250947;28;20103;-88
2023/06/21 13:41:53;;;;;;;4.85;4.35;;;;;;;29.78;100.00;100770.00;6251642;28;20045;-88
2023/06/21 13:44:55;;;;;;;5.95;4.20;;;;;;;29.79;98.96;100779.66;6245060;28;20554;-88
2023/06/21 13:47:56;;;;;;;5.22;4.72;;;;;;;29.58;100.00;100772.31;6239834;28;20373;-88
2023/06/21 13:50:59;;;;;;;8.95;4.18;;;;;;;29.79;100.00;100771.66;6238791;28;20411;-90
2023/06/21 13:54:00;;;;;;;5.25;4.55;;;;;;;29.99;100.00;100776.50;6253178;28;20502;-88
2023/06/21 13:57:03;;;;;;;4.60;4.20;;;;;;;29.70;100.00;100777.63;6257216;28;20571;-89
2023/06/21 14:00:13;;;;;;;6.65;4.32;;;;;;;29.32;100.00;100771.09;6258588;28;20048;-89
2023/06/21 14:03:16;;;;;;;4.72;4.20;;;;;;;29.32;100.00;100765.75;6250938;28;20049;-90